Latest Weather Observations for Outer Harbor (Black Pole)

IDS60801

Issued at 7:01 pm CST Friday 28 August 2015 (issued every 30 minutes, with the page automatically refreshed every 10 minutes)

About weather observations | Map of weather stations | Latest weather observations for SA | Other Formats
Station Details ID: 023052 Name: BLACK POLE Lat: -34.73 Lon: 138.47 Height: 8.0 m
Data from the previous 72 hours. | See also: Recent months for locations in South Australia
Date/Time
CST
Temp
°C
App
Temp
°C
Dew
Point
Rel
Hum
%
Delta-T
°C
Wind Press
QNH
hPa
Press
MSL
hPa
Rain
since 9 am
mm
Dir
 
Spd
km/h
Gust
km/h
Spd
kts
Gust
kts
28/07:00pm - - - - - SE 19 22 10 12 - - -
28/06:30pm - - - - - SE 20 22 11 12 - - -
28/06:00pm - - - - - S 24 30 13 16 - - -
28/05:30pm - - - - - S 26 30 14 16 - - -
28/05:00pm - - - - - SSW 26 30 14 16 - - -
28/04:30pm - - - - - SSW 26 32 14 17 - - -
28/04:00pm - - - - - SSW 26 32 14 17 - - -
28/03:30pm - - - - - SSW 24 28 13 15 - - -
28/03:00pm - - - - - SSW 22 26 12 14 - - -
28/02:30pm - - - - - SSW 22 24 12 13 - - -
28/02:00pm - - - - - SW 15 20 8 11 - - -
28/01:30pm - - - - - W 11 15 6 8 - - -
28/01:00pm - - - - - W 9 13 5 7 - - -
28/12:30pm - - - - - W 9 11 5 6 - - -
28/12:00pm - - - - - W 9 13 5 7 - - -
28/11:30am - - - - - W 7 7 4 4 - - -
28/11:00am - - - - - W 7 11 4 6 - - -
28/10:30am - - - - - WNW 6 7 3 4 - - -
28/10:00am - - - - - NNW 6 9 3 5 - - -
28/09:30am - - - - - N 6 9 3 5 - - -
28/09:00am - - - - - NNE 4 6 2 3 - - -
28/08:30am - - - - - NE 4 6 2 3 - - -
28/08:00am - - - - - E 6 7 3 4 - - -
28/07:30am - - - - - E 7 9 4 5 - - -
28/07:00am - - - - - ESE 7 9 4 5 - - -
28/06:30am - - - - - SSE 15 17 8 9 - - -
28/06:00am - - - - - ESE 11 13 6 7 - - -
28/05:30am - - - - - SE 7 9 4 5 - - -
28/05:00am - - - - - E 7 9 4 5 - - -
28/04:30am - - - - - ENE 11 15 6 8 - - -
28/04:00am - - - - - SSE 9 13 5 7 - - -
28/03:30am - - - - - SE 6 11 3 6 - - -
28/03:00am - - - - - S 13 17 7 9 - - -
28/02:30am - - - - - S 13 17 7 9 - - -
28/02:00am - - - - - S 15 19 8 10 - - -
28/01:30am - - - - - S 15 17 8 9 - - -
28/01:00am - - - - - SSE 9 13 5 7 - - -
28/12:30am - - - - - SSE 13 17 7 9 - - -
28/12:00am - - - - - S 19 22 10 12 - - -
 
Date/Time
CST
Temp
°C
App
Temp
°C
Dew
Point
Rel
Hum
%
Delta-T
°C
Wind Press
QNH
hPa
Press
MSL
hPa
Rain
since 9 am
mm
Dir
 
Spd
km/h
Gust
km/h
Spd
kts
Gust
kts
27/11:30pm - - - - - S 17 20 9 11 - - -
27/11:00pm - - - - - S 17 19 9 10 - - -
27/10:30pm - - - - - SSE 19 22 10 12 - - -
27/10:00pm - - - - - S 20 24 11 13 - - -
27/09:30pm - - - - - SSE 19 22 10 12 - - -
27/09:00pm - - - - - SSE 17 20 9 11 - - -
27/08:30pm - - - - - SSE 19 22 10 12 - - -
27/08:00pm - - - - - S 26 30 14 16 - - -
27/07:30pm - - - - - S 24 30 13 16 - - -
27/07:00pm - - - - - S 30 35 16 19 - - -
27/06:30pm - - - - - S 30 33 16 18 - - -
27/06:00pm - - - - - SSW 24 30 13 16 - - -
27/05:30pm - - - - - SSW 19 22 10 12 - - -
27/05:00pm - - - - - SSW 20 24 11 13 - - -
27/04:30pm - - - - - SSW 22 26 12 14 - - -
27/04:00pm - - - - - S 24 28 13 15 - - -
27/03:30pm - - - - - S 28 32 15 17 - - -
27/03:00pm - - - - - SSW 28 33 15 18 - - -
27/02:30pm - - - - - SSW 26 32 14 17 - - -
27/02:00pm - - - - - SSW 28 32 15 17 - - -
27/01:30pm - - - - - SSW 28 33 15 18 - - -
27/01:00pm - - - - - SSW 24 28 13 15 - - -
27/12:30pm - - - - - SW 15 19 8 10 - - -
27/12:00pm - - - - - WSW 13 19 7 10 - - -
27/11:30am - - - - - SW 7 11 4 6 - - -
27/11:00am - - - - - WSW 6 9 3 5 - - -
27/10:30am - - - - - W 2 4 1 2 - - -
27/10:00am - - - - - N 6 7 3 4 - - -
27/09:30am - - - - - N 7 9 4 5 - - -
27/09:00am - - - - - NE 9 11 5 6 - - -
27/08:30am - - - - - NNE 13 15 7 8 - - -
27/08:00am - - - - - NE 15 19 8 10 - - -
27/07:30am - - - - - NE 15 17 8 9 - - -
27/07:00am - - - - - NNE 11 15 6 8 - - -
27/06:30am - - - - - NE 11 15 6 8 - - -
27/06:00am - - - - - NNE 11 13 6 7 - - -
27/05:30am - - - - - NNE 9 13 5 7 - - -
27/05:00am - - - - - NNE 11 13 6 7 - - -
27/04:30am - - - - - N 15 17 8 9 - - -
27/04:00am - - - - - NNE 11 15 6 8 - - -
27/03:30am - - - - - NNE 13 17 7 9 - - -
27/03:00am - - - - - N 13 17 7 9 - - -
27/02:30am - - - - - NNE 7 9 4 5 - - -
27/02:00am - - - - - NNE 6 7 3 4 - - -
27/01:30am - - - - - NNE 11 13 6 7 - - -
27/01:00am - - - - - N 7 9 4 5 - - -
27/12:30am - - - - - N 7 11 4 6 - - -
27/12:00am - - - - - NNE 7 9 4 5 - - -
 
Date/Time
CST
Temp
°C
App
Temp
°C
Dew
Point
Rel
Hum
%
Delta-T
°C
Wind Press
QNH
hPa
Press
MSL
hPa
Rain
since 9 am
mm
Dir
 
Spd
km/h
Gust
km/h
Spd
kts
Gust
kts
26/11:30pm - - - - - E 6 7 3 4 - - -
26/11:00pm - - - - - ESE 7 9 4 5 - - -
26/10:30pm - - - - - S 13 15 7 8 - - -
26/10:00pm - - - - - S 15 17 8 9 - - -
26/09:30pm - - - - - SSW 15 19 8 10 - - -
26/09:00pm - - - - - S 15 17 8 9 - - -
26/08:30pm - - - - - SSW 13 15 7 8 - - -
26/08:00pm - - - - - SSW 13 15 7 8 - - -
26/07:30pm - - - - - SSW 15 17 8 9 - - -
26/07:00pm - - - - - SSW 15 19 8 10 - - -
26/06:30pm - - - - - SSW 15 17 8 9 - - -
26/06:00pm - - - - - S 17 19 9 10 - - -
26/05:30pm - - - - - S 17 19 9 10 - - -
26/05:00pm - - - - - SSW 15 17 8 9 - - -
26/04:30pm - - - - - SSW 19 22 10 12 - - -
26/04:00pm - - - - - SSW 17 19 9 10 - - -
26/03:30pm - - - - - SW 19 20 10 11 - - -
26/03:00pm - - - - - SW 20 26 11 14 - - -
26/02:30pm - - - - - SW 24 26 13 14 - - -
26/02:00pm - - - - - SW 19 20 10 11 - - -
26/01:30pm - - - - - WSW 17 20 9 11 - - -
26/01:00pm - - - - - SW 15 17 8 9 - - -
26/12:30pm - - - - - SW 13 15 7 8 - - -
26/12:00pm - - - - - WSW 9 11 5 6 - - -
26/11:30am - - - - - W 9 11 5 6 - - -
26/11:00am - - - - - WNW 7 9 4 5 - - -
26/10:30am - - - - - NNW 2 4 1 2 - - -
26/10:00am - - - - - NNW 4 6 2 3 - - -
26/09:30am - - - - - NNW 6 7 3 4 - - -
26/09:00am - - - - - N 6 7 3 4 - - -
26/08:30am - - - - - N 11 13 6 7 - - -
26/08:00am - - - - - NNE 11 13 6 7 - - -
26/07:30am - - - - - NE 7 9 4 5 - - -
26/07:00am - - - - - ENE 9 11 5 6 - - -
26/06:30am - - - - - NE 9 13 5 7 - - -
26/06:00am - - - - - NE 7 9 4 5 - - -
26/05:30am - - - - - NE 6 9 3 5 - - -
26/05:00am - - - - - NE 7 9 4 5 - - -
26/04:30am - - - - - NE 7 9 4 5 - - -
26/04:00am - - - - - NNE 6 9 3 5 - - -
26/03:30am - - - - - NNE 7 9 4 5 - - -
26/03:00am - - - - - NNE 2 4 1 2 - - -
26/02:30am - - - - - SSE 4 6 2 3 - - -
26/02:00am - - - - - SSE 6 6 3 3 - - -
26/01:30am - - - - - SSE 6 7 3 4 - - -
26/01:00am - - - - - S 11 15 6 8 - - -
26/12:30am - - - - - S 11 13 6 7 - - -
26/12:00am - - - - - S 13 15 7 8 - - -
 
Date/Time
CST
Temp
°C
App
Temp
°C
Dew
Point
Rel
Hum
%
Delta-T
°C
Wind Press
QNH
hPa
Press
MSL
hPa
Rain
since 9 am
mm
Dir
 
Spd
km/h
Gust
km/h
Spd
kts
Gust
kts
25/11:30pm - - - - - S 15 17 8 9 - - -
25/11:00pm - - - - - S 17 19 9 10 - - -
25/10:30pm - - - - - S 17 20 9 11 - - -
25/10:00pm - - - - - SSE 19 22 10 12 - - -
25/09:30pm - - - - - SSE 20 22 11 12 - - -
25/09:00pm - - - - - SSE 19 22 10 12 - - -
25/08:30pm - - - - - SSE 19 20 10 11 - - -
25/08:00pm - - - - - SSE 19 20 10 11 - - -
25/07:30pm - - - - - SSE 20 26 11 14 - - -

Other Formats:

Comma delimited format used in spreadsheet applications
http://www.bom.gov.au/fwo/IDS60801/IDS60801.95675.axf

JavaScript Object Notation format (JSON) in row-major order
http://www.bom.gov.au/fwo/IDS60801/IDS60801.95675.json